Time;durP1;ratioP1;P1;durP2;ratioP2;P2;SDS_P1;SDS_P2;PMS_P1;PMS_P2;Temp;Humidity;BMP_temperature;BMP_pressure;BME280_temperature;BME280_humidity;BME280_pressure;Samples;Min_cycle;Max_cycle;Signal;HPM_P1;HPM_P2
2022/01/30 00:00:57;;;;;;;0.60;0.40;;;;;;;;;;6217869;23;20236;-93
2022/01/30 00:03:25;;;;;;;0.10;0.10;;;;;;;;;;6216935;23;20173;-93
2022/01/30 00:05:52;;;;;;;0.30;0.30;;;;;;;;;;6217744;23;20205;-93
2022/01/30 00:08:19;;;;;;;0.53;0.53;;;;;;;;;;6217684;23;20197;-93
2022/01/30 00:10:52;;;;;;;0.40;0.40;;;;;;;;;;6217993;23;20193;-93
2022/01/30 00:13:24;;;;;;;0.20;0.20;;;;;;;;;;6217266;23;20531;-93
2022/01/30 00:15:53;;;;;;;0.40;0.27;;;;;;;;;;6217607;23;20178;-92
2022/01/30 00:21:29;;;;;;;0.60;0.60;;;;;;;;;;6213585;23;20170;-93
2022/01/30 00:24:01;;;;;;;0.73;0.30;;;;;;;;;;6217124;23;20197;-92
2022/01/30 00:26:31;;;;;;;0.47;0.43;;;;;;;;;;6217388;23;20175;-92
2022/01/30 00:29:00;;;;;;;0.30;0.30;;;;;;;;;;6219901;23;20174;-92
2022/01/30 00:31:27;;;;;;;0.30;0.30;;;;;;;;;;6216610;23;20351;-93
2022/01/30 00:33:56;;;;;;;0.30;0.30;;;;;;;;;;6217436;23;20197;-93
2022/01/30 00:36:23;;;;;;;0.30;0.30;;;;;;;;;;6217930;23;20178;-93
2022/01/30 00:38:50;;;;;;;0.30;0.30;;;;;;;;;;6217236;23;20178;-93
2022/01/30 00:41:18;;;;;;;0.40;0.40;;;;;;;;;;6217065;23;20170;-92
2022/01/30 00:43:45;;;;;;;0.40;0.40;;;;;;;;;;6217276;23;20198;-93
2022/01/30 00:46:14;;;;;;;0.30;0.30;;;;;;;;;;6216883;23;20174;-93
2022/01/30 00:48:42;;;;;;;0.30;0.30;;;;;;;;;;6217189;23;20182;-93
2022/01/30 00:51:10;;;;;;;1.10;0.50;;;;;;;;;;6217019;23;20194;-93
2022/01/30 00:53:37;;;;;;;0.33;0.33;;;;;;;;;;6216815;23;20244;-93
2022/01/30 00:56:07;;;;;;;0.60;0.50;;;;;;;;;;6216804;23;20235;-93
2022/01/30 00:58:34;;;;;;;0.40;0.40;;;;;;;;;;6216870;23;20180;-92
2022/01/30 01:01:01;;;;;;;0.30;0.30;;;;;;;;;;6216841;23;20225;-93
2022/01/30 01:03:30;;;;;;;0.40;0.40;;;;;;;;;;6216592;23;20232;-94
2022/01/30 01:05:58;;;;;;;0.30;0.30;;;;;;;;;;6217183;23;20178;-94
2022/01/30 01:08:32;;;;;;;0.30;0.30;;;;;;;;;;6216619;23;20493;-94
2022/01/30 01:11:12;;;;;;;0.40;0.40;;;;;;;;;;6216680;23;20198;-92
2022/01/30 01:14:10;;;;;;;0.30;0.30;;;;;;;;;;6215960;23;20178;-93
2022/01/30 01:24:58;;;;;;;0.30;0.30;;;;;;;;;;6216853;23;20264;-94
2022/01/30 01:27:26;;;;;;;0.67;0.53;;;;;;;;;;6219929;23;20181;-94
2022/01/30 01:29:53;;;;;;;0.50;0.50;;;;;;;;;;6218704;23;20178;-94
2022/01/30 01:32:20;;;;;;;0.50;0.50;;;;;;;;;;6219205;23;20250;-93
2022/01/30 01:34:49;;;;;;;0.67;0.67;;;;;;;;;;6220088;23;20252;-94
2022/01/30 01:37:16;;;;;;;0.50;0.50;;;;;;;;;;6218759;23;20174;-93
2022/01/30 01:39:44;;;;;;;0.60;0.60;;;;;;;;;;6218417;23;20232;-94
2022/01/30 01:42:14;;;;;;;1.47;0.50;;;;;;;;;;6218961;23;20178;-93
2022/01/30 01:44:45;;;;;;;0.60;0.60;;;;;;;;;;6218809;23;20224;-93
2022/01/30 01:47:14;;;;;;;0.50;0.50;;;;;;;;;;6218413;23;20166;-93
2022/01/30 01:49:42;;;;;;;0.43;0.43;;;;;;;;;;6218755;23;20192;-95
2022/01/30 01:52:23;;;;;;;0.60;0.60;;;;;;;;;;6219076;23;20194;-93
2022/01/30 01:54:52;;;;;;;0.67;0.67;;;;;;;;;;6218888;23;20220;-93
2022/01/30 01:57:20;;;;;;;0.50;0.50;;;;;;;;;;6218405;23;20517;-94
2022/01/30 01:59:48;;;;;;;0.40;0.40;;;;;;;;;;6220303;23;20182;-94
2022/01/30 02:02:24;;;;;;;0.63;0.63;;;;;;;;;;6219363;23;20224;-93
2022/01/30 02:04:52;;;;;;;0.50;0.50;;;;;;;;;;6217854;23;20206;-93
2022/01/30 02:10:07;;;;;;;0.50;0.50;;;;;;;;;;6201651;23;20648;-93
2022/01/30 02:12:42;;;;;;;0.67;0.67;;;;;;;;;;6217942;23;20216;-93
2022/01/30 02:15:29;;;;;;;0.90;0.80;;;;;;;;;;6220025;23;20652;-93
2022/01/30 02:26:12;;;;;;;0.80;0.80;;;;;;;;;;6221499;23;20185;-94
2022/01/30 02:28:40;;;;;;;1.03;0.93;;;;;;;;;;6221120;23;20177;-93
2022/01/30 02:31:11;;;;;;;0.77;0.77;;;;;;;;;;6218674;23;20180;-92
2022/01/30 02:33:39;;;;;;;0.70;0.70;;;;;;;;;;6218150;23;20201;-94
2022/01/30 02:36:07;;;;;;;0.90;0.90;;;;;;;;;;6218201;23;20185;-94
2022/01/30 02:38:36;;;;;;;0.80;0.80;;;;;;;;;;6218095;23;20197;-93
2022/01/30 02:41:03;;;;;;;0.77;0.77;;;;;;;;;;6218025;23;20174;-94
2022/01/30 02:43:35;;;;;;;1.40;0.80;;;;;;;;;;6218629;23;20355;-95
2022/01/30 02:46:08;;;;;;;0.70;0.70;;;;;;;;;;6220012;23;20174;-93
2022/01/30 02:48:47;;;;;;;0.80;0.60;;;;;;;;;;6218535;23;20261;-94
2022/01/30 02:51:16;;;;;;;0.50;0.50;;;;;;;;;;6217664;23;20720;-93
2022/01/30 02:53:54;;;;;;;0.80;0.80;;;;;;;;;;6218271;23;20185;-93
2022/01/30 02:56:22;;;;;;;1.03;0.70;;;;;;;;;;6218931;23;20173;-94
2022/01/30 02:58:49;;;;;;;0.80;0.80;;;;;;;;;;6218506;23;20178;-95
2022/01/30 03:01:16;;;;;;;0.70;0.70;;;;;;;;;;6218112;23;20261;-93
2022/01/30 03:03:44;;;;;;;0.70;0.70;;;;;;;;;;6217929;23;20202;-93
2022/01/30 03:06:11;;;;;;;1.30;0.83;;;;;;;;;;6218331;23;20247;-95
2022/01/30 03:08:38;;;;;;;0.67;0.67;;;;;;;;;;6218568;23;20514;-93
2022/01/30 03:11:07;;;;;;;0.87;0.77;;;;;;;;;;6218957;23;20178;-93
2022/01/30 03:13:34;;;;;;;0.73;0.73;;;;;;;;;;6218155;23;20247;-94
2022/01/30 03:16:03;;;;;;;0.80;0.73;;;;;;;;;;6218272;23;20181;-94
2022/01/30 03:18:31;;;;;;;1.50;0.60;;;;;;;;;;6218541;23;20185;-92
2022/01/30 03:20:58;;;;;;;0.97;0.93;;;;;;;;;;6218339;23;20181;-93
2022/01/30 03:23:26;;;;;;;0.67;0.67;;;;;;;;;;6218147;23;20170;-94
2022/01/30 03:25:57;;;;;;;0.87;0.80;;;;;;;;;;6218251;23;20248;-94
2022/01/30 03:28:27;;;;;;;1.43;0.87;;;;;;;;;;6218260;23;20170;-93
2022/01/30 03:30:58;;;;;;;0.70;0.70;;;;;;;;;;6219058;23;20228;-93
2022/01/30 03:33:26;;;;;;;0.90;0.90;;;;;;;;;;6219510;23;20194;-93
2022/01/30 03:35:53;;;;;;;0.83;0.83;;;;;;;;;;6217997;23;20186;-93
2022/01/30 03:38:21;;;;;;;1.90;0.67;;;;;;;;;;6217372;23;20179;-94
2022/01/30 03:40:48;;;;;;;1.57;1.20;;;;;;;;;;6218384;23;20186;-94
2022/01/30 03:43:16;;;;;;;0.93;0.90;;;;;;;;;;6228706;23;20174;-93
2022/01/30 03:45:45;;;;;;;0.80;0.80;;;;;;;;;;6236412;22;20225;-93
2022/01/30 03:48:12;;;;;;;1.23;0.83;;;;;;;;;;6235268;22;20196;-93
2022/01/30 03:50:40;;;;;;;0.80;0.77;;;;;;;;;;6235983;23;20340;-94
2022/01/30 03:53:07;;;;;;;0.60;0.60;;;;;;;;;;6237692;22;20197;-93
2022/01/30 03:55:35;;;;;;;0.80;0.80;;;;;;;;;;6234537;23;20198;-94
2022/01/30 03:58:03;;;;;;;1.00;0.90;;;;;;;;;;6232665;23;20190;-93
2022/01/30 04:00:30;;;;;;;0.50;0.50;;;;;;;;;;6233487;23;20249;-93
2022/01/30 04:02:59;;;;;;;0.60;0.60;;;;;;;;;;6235974;23;20174;-94
2022/01/30 04:05:26;;;;;;;0.60;0.60;;;;;;;;;;6233989;23;20224;-93
2022/01/30 04:07:54;;;;;;;0.57;0.57;;;;;;;;;;6231055;23;20178;-93
2022/01/30 04:10:21;;;;;;;0.53;0.53;;;;;;;;;;6230479;23;20178;-94
2022/01/30 04:12:49;;;;;;;0.60;0.60;;;;;;;;;;6229813;23;20225;-92
2022/01/30 04:15:16;;;;;;;1.07;0.90;;;;;;;;;;6231936;23;20198;-93
2022/01/30 04:17:44;;;;;;;0.60;0.60;;;;;;;;;;6234041;23;20204;-93
2022/01/30 04:20:14;;;;;;;0.70;0.70;;;;;;;;;;6234594;23;20208;-94
2022/01/30 04:22:41;;;;;;;0.70;0.70;;;;;;;;;;6231892;23;20174;-93
2022/01/30 04:25:09;;;;;;;0.70;0.70;;;;;;;;;;6232114;23;20198;-93
2022/01/30 04:27:36;;;;;;;1.10;0.80;;;;;;;;;;6233500;23;20170;-94
2022/01/30 04:30:04;;;;;;;1.00;0.90;;;;;;;;;;6234036;23;20182;-94
2022/01/30 04:32:33;;;;;;;0.83;0.83;;;;;;;;;;6233869;23;20252;-93
2022/01/30 04:35:10;;;;;;;1.03;0.97;;;;;;;;;;6231897;23;20198;-94
2022/01/30 04:37:51;;;;;;;1.60;0.80;;;;;;;;;;6233632;23;20193;-93
2022/01/30 04:40:44;;;;;;;0.97;0.80;;;;;;;;;;6233440;23;20185;-93
2022/01/30 04:57:18;;;;;;;0.73;0.73;;;;;;;;;;6207900;23;20205;-94
2022/01/30 05:00:03;;;;;;;0.87;0.87;;;;;;;;;;6231046;23;20201;-93
2022/01/30 05:02:46;;;;;;;1.60;0.70;;;;;;;;;;6231729;23;20205;-93
2022/01/30 05:05:37;;;;;;;1.03;0.93;;;;;;;;;;6233963;23;20213;-93
2022/01/30 05:08:05;;;;;;;1.87;0.83;;;;;;;;;;6233254;23;20184;-93
2022/01/30 05:10:34;;;;;;;0.60;0.60;;;;;;;;;;6238854;22;20193;-93
2022/01/30 05:13:04;;;;;;;0.80;0.80;;;;;;;;;;6236411;22;20209;-94
2022/01/30 05:15:32;;;;;;;1.30;1.20;;;;;;;;;;6235696;23;20198;-94
2022/01/30 05:17:59;;;;;;;0.70;0.70;;;;;;;;;;6232841;23;20178;-93
2022/01/30 05:20:29;;;;;;;1.57;0.80;;;;;;;;;;6234349;23;20210;-94
2022/01/30 05:22:57;;;;;;;2.13;0.97;;;;;;;;;;6233212;23;20181;-93
2022/01/30 05:25:24;;;;;;;0.90;0.90;;;;;;;;;;6232983;23;20197;-93
2022/01/30 05:27:53;;;;;;;1.37;0.90;;;;;;;;;;6232162;23;20204;-93
2022/01/30 05:30:21;;;;;;;0.90;0.90;;;;;;;;;;6233444;23;20233;-94
2022/01/30 05:32:49;;;;;;;1.23;0.90;;;;;;;;;;6231288;23;20198;-93
2022/01/30 05:35:16;;;;;;;1.47;1.00;;;;;;;;;;6233040;23;20259;-93
2022/01/30 05:37:44;;;;;;;0.90;0.90;;;;;;;;;;6231834;23;20236;-93
2022/01/30 05:40:12;;;;;;;1.10;1.00;;;;;;;;;;6232474;23;20178;-93
2022/01/30 05:42:39;;;;;;;1.40;1.30;;;;;;;;;;6231069;23;20174;-94
2022/01/30 05:45:16;;;;;;;1.30;1.20;;;;;;;;;;6230088;23;20198;-93
2022/01/30 05:47:48;;;;;;;3.27;1.37;;;;;;;;;;6228595;23;20624;-93
2022/01/30 05:50:16;;;;;;;1.47;1.20;;;;;;;;;;6227910;23;20479;-93
2022/01/30 05:52:43;;;;;;;1.23;1.13;;;;;;;;;;6228676;23;20198;-94
2022/01/30 05:55:10;;;;;;;1.30;1.20;;;;;;;;;;6227647;22;20194;-94
2022/01/30 05:57:38;;;;;;;2.30;1.27;;;;;;;;;;6228648;23;20228;-93
2022/01/30 06:00:06;;;;;;;1.30;1.17;;;;;;;;;;6230742;23;20182;-93
2022/01/30 06:02:34;;;;;;;1.93;1.40;;;;;;;;;;6230343;23;20240;-94
2022/01/30 06:05:02;;;;;;;2.90;1.60;;;;;;;;;;6230260;23;20198;-94
2022/01/30 06:07:31;;;;;;;7.90;1.87;;;;;;;;;;6229700;23;20190;-94
2022/01/30 06:09:59;;;;;;;4.93;1.90;;;;;;;;;;6230211;23;20187;-93
2022/01/30 06:12:26;;;;;;;3.17;1.83;;;;;;;;;;6231296;23;20198;-93
2022/01/30 06:14:53;;;;;;;4.83;2.10;;;;;;;;;;6230646;23;20197;-93
2022/01/30 06:17:21;;;;;;;2.77;1.77;;;;;;;;;;6232410;23;20277;-93
2022/01/30 06:19:50;;;;;;;2.50;1.60;;;;;;;;;;6229324;23;20209;-93
2022/01/30 06:22:17;;;;;;;4.13;1.63;;;;;;;;;;6229912;23;20180;-93
2022/01/30 06:24:48;;;;;;;2.10;1.90;;;;;;;;;;6220673;23;20248;-92
2022/01/30 06:27:16;;;;;;;2.17;1.50;;;;;;;;;;6214934;23;20593;-92
2022/01/30 06:29:43;;;;;;;2.63;1.60;;;;;;;;;;6215264;23;20232;-93
2022/01/30 06:32:10;;;;;;;2.90;1.50;;;;;;;;;;6214923;23;20205;-92
2022/01/30 06:34:37;;;;;;;2.23;1.80;;;;;;;;;;6214901;23;20664;-92
2022/01/30 06:37:17;;;;;;;2.67;1.40;;;;;;;;;;6214554;23;20190;-92
2022/01/30 06:39:44;;;;;;;5.03;1.50;;;;;;;;;;6214496;23;20169;-92
2022/01/30 06:42:12;;;;;;;2.00;1.33;;;;;;;;;;6214600;23;20178;-91
2022/01/30 06:44:39;;;;;;;1.63;1.30;;;;;;;;;;6214404;23;20194;-92
2022/01/30 06:47:07;;;;;;;2.80;1.97;;;;;;;;;;6214614;23;20174;-92
2022/01/30 06:49:34;;;;;;;4.73;1.37;;;;;;;;;;6215065;23;20181;-92
2022/01/30 06:52:01;;;;;;;1.83;1.60;;;;;;;;;;6214685;23;20185;-92
2022/01/30 06:54:30;;;;;;;6.37;1.50;;;;;;;;;;6215001;23;20264;-92
2022/01/30 06:56:57;;;;;;;5.40;2.33;;;;;;;;;;6214829;23;20178;-93
2022/01/30 06:59:25;;;;;;;2.27;1.27;;;;;;;;;;6215620;23;20177;-93
2022/01/30 07:01:52;;;;;;;5.53;2.10;;;;;;;;;;6214921;23;20205;-92
2022/01/30 07:04:20;;;;;;;8.63;2.33;;;;;;;;;;6214970;23;20194;-92
2022/01/30 07:06:48;;;;;;;4.70;1.90;;;;;;;;;;6215240;23;20201;-92
2022/01/30 07:09:15;;;;;;;3.27;2.10;;;;;;;;;;6214778;23;20178;-92
2022/01/30 07:11:44;;;;;;;9.03;3.07;;;;;;;;;;6214808;23;20174;-92
2022/01/30 07:14:11;;;;;;;3.43;1.80;;;;;;;;;;6215256;23;20198;-91
2022/01/30 07:16:38;;;;;;;4.27;1.43;;;;;;;;;;6215654;23;20174;-92
2022/01/30 07:19:05;;;;;;;7.23;2.30;;;;;;;;;;6214670;23;20244;-92
2022/01/30 07:21:33;;;;;;;14.47;2.50;;;;;;;;;;6215114;23;20182;-92
2022/01/30 07:24:00;;;;;;;11.30;2.30;;;;;;;;;;6214769;23;20834;-93
2022/01/30 07:26:27;;;;;;;5.13;1.97;;;;;;;;;;6217748;23;20189;-92
2022/01/30 07:28:56;;;;;;;11.67;2.63;;;;;;;;;;6217418;23;20178;-92
2022/01/30 07:31:23;;;;;;;4.17;2.00;;;;;;;;;;6217125;23;20186;-92
2022/01/30 07:33:51;;;;;;;5.67;1.73;;;;;;;;;;6217515;23;20201;-93
2022/01/30 07:36:19;;;;;;;8.40;2.20;;;;;;;;;;6218517;23;20523;-92
2022/01/30 07:38:46;;;;;;;6.07;2.40;;;;;;;;;;6216381;23;20582;-92
2022/01/30 07:41:13;;;;;;;6.60;2.17;;;;;;;;;;6216664;23;20182;-92
2022/01/30 07:43:41;;;;;;;9.33;2.47;;;;;;;;;;6216280;23;20222;-92
2022/01/30 07:46:10;;;;;;;13.17;2.43;;;;;;;;;;6216181;23;20174;-92
2022/01/30 07:48:37;;;;;;;4.73;2.13;;;;;;;;;;6216533;23;20181;-92
2022/01/30 07:51:07;;;;;;;6.80;2.40;;;;;;;;;;6216493;23;20183;-92
2022/01/30 07:53:35;;;;;;;6.90;2.50;;;;;;;;;;6216548;23;20200;-92
2022/01/30 07:56:02;;;;;;;6.47;1.83;;;;;;;;;;6214993;23;20178;-93
2022/01/30 07:58:29;;;;;;;4.87;1.93;;;;;;;;;;6216487;23;20185;-92
2022/01/30 08:00:57;;;;;;;7.93;2.23;;;;;;;;;;6216490;23;20186;-92
2022/01/30 08:03:26;;;;;;;7.27;1.63;;;;;;;;;;6215651;23;20170;-92
2022/01/30 08:05:53;;;;;;;9.20;2.27;;;;;;;;;;6215050;23;20197;-92
2022/01/30 08:08:20;;;;;;;5.07;1.93;;;;;;;;;;6215761;23;20178;-92
2022/01/30 08:10:48;;;;;;;2.33;1.30;;;;;;;;;;6216566;23;20185;-92
2022/01/30 08:13:16;;;;;;;5.80;2.37;;;;;;;;;;6215940;23;20190;-92
2022/01/30 08:15:43;;;;;;;7.37;1.30;;;;;;;;;;6215041;23;20547;-93
2022/01/30 08:18:11;;;;;;;3.77;1.57;;;;;;;;;;6215789;23;20178;-92
2022/01/30 08:20:42;;;;;;;6.30;2.27;;;;;;;;;;6216204;23;20174;-93
2022/01/30 08:23:12;;;;;;;9.13;2.00;;;;;;;;;;6215462;23;20182;-92
2022/01/30 08:25:42;;;;;;;7.40;1.53;;;;;;;;;;6214565;23;20201;-92
2022/01/30 08:28:09;;;;;;;12.00;2.27;;;;;;;;;;6215669;23;20262;-92
2022/01/30 08:30:36;;;;;;;5.10;1.97;;;;;;;;;;6214591;23;20558;-92
2022/01/30 08:33:04;;;;;;;5.07;1.73;;;;;;;;;;6214244;23;20189;-92
2022/01/30 08:35:32;;;;;;;5.33;2.10;;;;;;;;;;6215555;23;20248;-92
2022/01/30 08:38:02;;;;;;;5.07;1.73;;;;;;;;;;6215241;23;20178;-91
2022/01/30 08:40:36;;;;;;;8.47;1.90;;;;;;;;;;6215088;23;20174;-92
2022/01/30 08:43:07;;;;;;;4.63;1.67;;;;;;;;;;6216820;23;20166;-92
2022/01/30 08:45:34;;;;;;;9.63;1.80;;;;;;;;;;6218982;23;20216;-92
2022/01/30 08:48:02;;;;;;;3.30;1.37;;;;;;;;;;6215931;23;20189;-92
2022/01/30 08:50:29;;;;;;;8.50;2.47;;;;;;;;;;6216312;23;20174;-92
2022/01/30 08:53:06;;;;;;;3.77;1.73;;;;;;;;;;6216140;23;20182;-92
2022/01/30 08:55:33;;;;;;;8.50;2.10;;;;;;;;;;6216144;23;20213;-93
2022/01/30 08:58:07;;;;;;;7.13;2.13;;;;;;;;;;6215337;23;20790;-92
2022/01/30 09:00:35;;;;;;;4.77;2.03;;;;;;;;;;6217220;23;20189;-92
2022/01/30 09:03:02;;;;;;;6.93;1.80;;;;;;;;;;6216845;23;20178;-92
2022/01/30 09:05:30;;;;;;;3.43;1.83;;;;;;;;;;6215101;23;20197;-92
2022/01/30 09:07:57;;;;;;;6.70;2.10;;;;;;;;;;6216564;23;20570;-91
2022/01/30 09:10:26;;;;;;;8.10;1.73;;;;;;;;;;6216852;23;20515;-92
2022/01/30 09:12:54;;;;;;;9.13;2.23;;;;;;;;;;6215683;23;20257;-90
2022/01/30 09:15:21;;;;;;;5.87;2.43;;;;;;;;;;6215508;23;20217;-92
2022/01/30 09:17:48;;;;;;;6.90;1.30;;;;;;;;;;6216456;23;20538;-92
2022/01/30 09:20:16;;;;;;;4.97;1.47;;;;;;;;;;6216601;23;20648;-92
2022/01/30 09:22:44;;;;;;;8.00;2.40;;;;;;;;;;6215496;23;20225;-92
2022/01/30 09:25:11;;;;;;;3.97;2.03;;;;;;;;;;6216081;23;20194;-92
2022/01/30 09:27:40;;;;;;;5.40;2.40;;;;;;;;;;6215908;23;20187;-91
2022/01/30 09:30:09;;;;;;;7.57;2.03;;;;;;;;;;6215791;23;20177;-92
2022/01/30 09:32:36;;;;;;;3.40;1.40;;;;;;;;;;6215585;23;20265;-91
2022/01/30 09:35:04;;;;;;;4.13;1.80;;;;;;;;;;6216464;23;20209;-92
2022/01/30 09:37:31;;;;;;;6.63;1.33;;;;;;;;;;6229154;23;20166;-90
2022/01/30 09:39:59;;;;;;;3.70;1.90;;;;;;;;;;6231311;23;20185;-90
2022/01/30 09:42:26;;;;;;;6.03;2.10;;;;;;;;;;6230726;23;20651;-90
2022/01/30 09:44:58;;;;;;;5.13;2.03;;;;;;;;;;6232903;23;20194;-90
2022/01/30 09:47:25;;;;;;;11.53;2.13;;;;;;;;;;6232565;23;20174;-90
2022/01/30 09:49:53;;;;;;;4.33;2.00;;;;;;;;;;6232313;23;20233;-90
2022/01/30 09:52:21;;;;;;;4.83;2.17;;;;;;;;;;6231720;23;20184;-91
2022/01/30 09:54:49;;;;;;;7.37;1.70;;;;;;;;;;6219726;23;20281;-91
2022/01/30 09:57:16;;;;;;;6.80;2.00;;;;;;;;;;6215258;23;20178;-91
2022/01/30 09:59:45;;;;;;;8.60;1.90;;;;;;;;;;6214615;23;20177;-90
2022/01/30 10:02:14;;;;;;;4.10;1.90;;;;;;;;;;6215124;23;20621;-91
2022/01/30 10:04:42;;;;;;;2.13;0.63;;;;;;;;;;6214502;23;20197;-91
2022/01/30 10:07:13;;;;;;;5.73;1.77;;;;;;;;;;6215167;23;20198;-91
2022/01/30 10:09:44;;;;;;;2.37;1.43;;;;;;;;;;6216077;23;20181;-91
2022/01/30 10:12:15;;;;;;;4.40;1.33;;;;;;;;;;6215842;23;20178;-91
2022/01/30 10:15:03;;;;;;;9.33;2.87;;;;;;;;;;6215453;23;20271;-90
2022/01/30 10:17:36;;;;;;;6.63;1.70;;;;;;;;;;6206010;23;20185;-91
2022/01/30 10:20:06;;;;;;;3.47;1.60;;;;;;;;;;6215825;23;20208;-90
2022/01/30 10:22:39;;;;;;;8.97;3.10;;;;;;;;;;6215392;23;20566;-91
2022/01/30 10:25:07;;;;;;;5.43;1.83;;;;;;;;;;6215461;23;20209;-91
2022/01/30 10:27:36;;;;;;;8.63;3.23;;;;;;;;;;6215339;23;20178;-91
2022/01/30 10:30:05;;;;;;;5.60;2.43;;;;;;;;;;6214777;23;20174;-90
2022/01/30 10:32:33;;;;;;;9.27;2.37;;;;;;;;;;6214720;23;20649;-90
2022/01/30 10:35:05;;;;;;;6.77;2.20;;;;;;;;;;6215088;23;20206;-91
2022/01/30 10:37:32;;;;;;;15.50;2.00;;;;;;;;;;6215460;23;20173;-90
2022/01/30 10:40:03;;;;;;;7.50;2.40;;;;;;;;;;6214431;23;20178;-91
2022/01/30 10:42:34;;;;;;;9.53;2.63;;;;;;;;;;6215090;23;20691;-91
2022/01/30 10:45:01;;;;;;;10.40;2.50;;;;;;;;;;6215356;23;20197;-91
2022/01/30 10:47:32;;;;;;;5.10;2.13;;;;;;;;;;6215292;23;20201;-91
2022/01/30 10:49:59;;;;;;;12.17;3.53;;;;;;;;;;6214988;23;20174;-90
2022/01/30 10:52:28;;;;;;;13.27;2.50;;;;;;;;;;6214914;23;20178;-91
2022/01/30 10:55:10;;;;;;;9.97;2.20;;;;;;;;;;6214686;23;20527;-90
2022/01/30 10:57:41;;;;;;;9.90;2.73;;;;;;;;;;6215044;23;20174;-90
2022/01/30 11:00:09;;;;;;;6.17;2.20;;;;;;;;;;6214418;23;20644;-90
2022/01/30 11:02:40;;;;;;;4.33;1.60;;;;;;;;;;6214978;23;20178;-91
2022/01/30 11:05:28;;;;;;;5.13;1.40;;;;;;;;;;6214443;23;20194;-91
2022/01/30 11:07:58;;;;;;;4.23;2.17;;;;;;;;;;6214947;23;20200;-91
2022/01/30 11:10:27;;;;;;;9.83;1.60;;;;;;;;;;6214915;23;20533;-90
2022/01/30 11:13:07;;;;;;;11.20;2.10;;;;;;;;;;6215053;23;20253;-91
2022/01/30 11:15:37;;;;;;;3.90;1.63;;;;;;;;;;6214778;23;20200;-91
2022/01/30 11:18:05;;;;;;;7.50;2.43;;;;;;;;;;6214899;23;20202;-90
2022/01/30 11:20:33;;;;;;;6.73;1.67;;;;;;;;;;6214152;23;20174;-90
2022/01/30 11:23:02;;;;;;;3.47;1.13;;;;;;;;;;6215149;23;20201;-90
2022/01/30 11:25:33;;;;;;;8.57;1.77;;;;;;;;;;6215033;23;20645;-90
2022/01/30 11:28:03;;;;;;;3.50;1.47;;;;;;;;;;6215077;23;20201;-91
2022/01/30 11:30:32;;;;;;;4.87;1.67;;;;;;;;;;6214291;23;20178;-90
2022/01/30 11:33:00;;;;;;;8.33;2.00;;;;;;;;;;6214903;23;20204;-91
2022/01/30 11:35:28;;;;;;;8.77;2.23;;;;;;;;;;6215056;23;20198;-91
2022/01/30 11:37:56;;;;;;;3.20;1.13;;;;;;;;;;6215750;23;20174;-92
2022/01/30 11:40:24;;;;;;;6.00;1.93;;;;;;;;;;6215602;23;20228;-91
2022/01/30 11:42:53;;;;;;;5.23;1.50;;;;;;;;;;6215502;23;20193;-92
2022/01/30 11:45:24;;;;;;;5.00;1.67;;;;;;;;;;6216355;23;20249;-91
2022/01/30 11:47:55;;;;;;;4.20;1.47;;;;;;;;;;6214856;23;20201;-91
2022/01/30 11:50:32;;;;;;;6.23;1.90;;;;;;;;;;6217584;23;20633;-92
2022/01/30 11:53:03;;;;;;;9.47;1.87;;;;;;;;;;6217361;23;20197;-91
2022/01/30 11:55:48;;;;;;;10.53;2.20;;;;;;;;;;6214715;23;20202;-92
2022/01/30 11:58:34;;;;;;;6.93;1.57;;;;;;;;;;6215602;23;20170;-92
2022/01/30 12:01:02;;;;;;;7.03;1.97;;;;;;;;;;6215687;23;20176;-92
2022/01/30 12:03:30;;;;;;;3.10;1.30;;;;;;;;;;6214513;23;20174;-91
2022/01/30 12:06:18;;;;;;;12.40;3.23;;;;;;;;;;6214238;23;20538;-91
2022/01/30 12:08:47;;;;;;;1.40;1.20;;;;;;;;;;6214495;23;20184;-91
2022/01/30 12:11:33;;;;;;;6.83;1.33;;;;;;;;;;6214717;23;20182;-91
2022/01/30 12:14:02;;;;;;;5.33;2.30;;;;;;;;;;6216578;23;20198;-91
2022/01/30 12:16:43;;;;;;;6.10;1.70;;;;;;;;;;6216166;23;20181;-91
2022/01/30 12:19:11;;;;;;;3.57;1.50;;;;;;;;;;6216222;23;20177;-91
2022/01/30 12:21:39;;;;;;;7.80;2.30;;;;;;;;;;6216010;23;20542;-91
2022/01/30 12:24:21;;;;;;;3.27;1.60;;;;;;;;;;6215772;23;20692;-90
2022/01/30 12:26:52;;;;;;;5.17;0.70;;;;;;;;;;6215831;23;20177;-90
2022/01/30 12:29:34;;;;;;;7.30;2.27;;;;;;;;;;6215827;23;20232;-91
2022/01/30 12:32:15;;;;;;;8.43;1.80;;;;;;;;;;6215404;23;20181;-91
2022/01/30 12:34:43;;;;;;;4.33;1.37;;;;;;;;;;6215783;23;20225;-92
2022/01/30 12:37:10;;;;;;;6.47;1.70;;;;;;;;;;6215514;23;20178;-91
2022/01/30 12:39:38;;;;;;;6.13;1.83;;;;;;;;;;6215618;23;20178;-90
2022/01/30 12:42:16;;;;;;;5.77;1.60;;;;;;;;;;6216534;23;20182;-91
2022/01/30 12:44:47;;;;;;;7.53;1.30;;;;;;;;;;6217047;23;20194;-91
2022/01/30 12:47:16;;;;;;;4.97;1.40;;;;;;;;;;6217295;23;20551;-91
2022/01/30 12:49:48;;;;;;;4.90;1.40;;;;;;;;;;6215882;23;20178;-90
2022/01/30 12:52:22;;;;;;;8.07;2.03;;;;;;;;;;6217792;23;20202;-90
2022/01/30 12:54:50;;;;;;;6.27;1.80;;;;;;;;;;6217138;23;20201;-91
2022/01/30 12:57:37;;;;;;;15.10;2.13;;;;;;;;;;6216556;23;20180;-92
2022/01/30 13:02:57;;;;;;;8.63;2.37;;;;;;;;;;6216672;23;20178;-91
2022/01/30 13:05:30;;;;;;;4.00;1.57;;;;;;;;;;6219008;23;20244;-90
2022/01/30 13:07:58;;;;;;;6.00;1.43;;;;;;;;;;6220576;23;20230;-90
2022/01/30 13:10:26;;;;;;;6.60;1.80;;;;;;;;;;6219814;23;20229;-91
2022/01/30 13:12:55;;;;;;;6.40;1.80;;;;;;;;;;6218483;23;20188;-91
2022/01/30 13:15:23;;;;;;;6.63;2.07;;;;;;;;;;6219434;23;20200;-91
2022/01/30 13:17:51;;;;;;;6.87;1.57;;;;;;;;;;6221051;23;20185;-91
2022/01/30 13:20:22;;;;;;;4.53;1.60;;;;;;;;;;6222126;23;20185;-92
2022/01/30 13:22:51;;;;;;;6.07;1.57;;;;;;;;;;6219225;23;20181;-91
2022/01/30 13:25:19;;;;;;;7.27;1.80;;;;;;;;;;6219187;23;20198;-92
2022/01/30 13:27:48;;;;;;;6.13;1.90;;;;;;;;;;6219225;23;20181;-91
2022/01/30 13:30:20;;;;;;;5.47;1.70;;;;;;;;;;6219637;23;20174;-90
2022/01/30 13:32:56;;;;;;;4.53;1.40;;;;;;;;;;6218804;23;20196;-91
2022/01/30 13:35:28;;;;;;;7.23;2.00;;;;;;;;;;6219143;23;20256;-92
2022/01/30 13:38:01;;;;;;;8.77;2.17;;;;;;;;;;6218635;23;20174;-91
2022/01/30 13:43:35;;;;;;;12.53;2.33;;;;;;;;;;6235196;23;20181;-92
2022/01/30 13:48:48;;;;;;;5.30;1.90;;;;;;;;;;6218156;23;20220;-92
2022/01/30 13:51:22;;;;;;;8.60;1.90;;;;;;;;;;6216670;23;20182;-92
2022/01/30 13:54:05;;;;;;;2.17;1.20;;;;;;;;;;6217254;23;20198;-91
2022/01/30 13:56:34;;;;;;;6.57;1.80;;;;;;;;;;6218353;23;20204;-92
2022/01/30 13:59:01;;;;;;;5.43;1.93;;;;;;;;;;6227941;23;20178;-92
2022/01/30 14:01:30;;;;;;;5.57;1.97;;;;;;;;;;6232726;23;20204;-93
2022/01/30 14:04:07;;;;;;;7.47;1.50;;;;;;;;;;6232789;23;20185;-92
2022/01/30 14:06:37;;;;;;;4.63;1.73;;;;;;;;;;6234428;23;20189;-92
2022/01/30 14:09:05;;;;;;;4.57;1.43;;;;;;;;;;6235028;23;20185;-92
2022/01/30 14:11:33;;;;;;;7.50;1.70;;;;;;;;;;6234098;23;20228;-92
2022/01/30 14:14:05;;;;;;;5.73;1.83;;;;;;;;;;6231415;23;20198;-91
2022/01/30 14:16:36;;;;;;;7.70;1.63;;;;;;;;;;6226325;23;20197;-91
2022/01/30 14:19:04;;;;;;;5.50;1.97;;;;;;;;;;6217333;23;20178;-91
2022/01/30 14:21:33;;;;;;;5.90;1.57;;;;;;;;;;6216449;23;20519;-92
2022/01/30 14:24:14;;;;;;;5.30;1.90;;;;;;;;;;6216504;23;20201;-92
2022/01/30 14:26:41;;;;;;;2.67;1.40;;;;;;;;;;6217244;23;20185;-92
2022/01/30 14:29:09;;;;;;;6.53;1.63;;;;;;;;;;6216619;23;20174;-91
2022/01/30 14:31:49;;;;;;;4.97;1.67;;;;;;;;;;6216198;23;20186;-92
2022/01/30 14:34:16;;;;;;;6.37;1.70;;;;;;;;;;6215152;23;20283;-91
2022/01/30 14:36:44;;;;;;;13.17;2.50;;;;;;;;;;6215157;23;20218;-91
2022/01/30 14:39:13;;;;;;;5.90;1.40;;;;;;;;;;6215476;23;20204;-91
2022/01/30 14:41:40;;;;;;;10.20;2.23;;;;;;;;;;6215505;23;20182;-91
2022/01/30 14:44:08;;;;;;;5.97;1.60;;;;;;;;;;6214829;23;20198;-91
2022/01/30 14:46:35;;;;;;;3.97;1.80;;;;;;;;;;6215078;23;20550;-92
2022/01/30 14:49:03;;;;;;;6.10;1.90;;;;;;;;;;6215070;23;20177;-92
2022/01/30 14:51:30;;;;;;;7.77;2.07;;;;;;;;;;6214100;23;20182;-92
2022/01/30 14:53:57;;;;;;;8.47;2.57;;;;;;;;;;6214543;23;20253;-91
2022/01/30 14:56:26;;;;;;;2.83;1.10;;;;;;;;;;6214546;23;20692;-91
2022/01/30 14:58:53;;;;;;;5.33;1.67;;;;;;;;;;6215083;23;20224;-91
2022/01/30 15:01:23;;;;;;;4.63;1.47;;;;;;;;;;6216133;23;20182;-91
2022/01/30 15:03:50;;;;;;;7.33;1.70;;;;;;;;;;6219265;23;20258;-92
2022/01/30 15:06:18;;;;;;;4.90;1.13;;;;;;;;;;6216052;23;20182;-91
2022/01/30 15:08:45;;;;;;;2.00;1.17;;;;;;;;;;6215484;23;20185;-92
2022/01/30 15:11:12;;;;;;;2.27;1.17;;;;;;;;;;6215073;23;20174;-90
2022/01/30 15:13:42;;;;;;;8.63;1.80;;;;;;;;;;6215308;23;20269;-91
2022/01/30 15:16:19;;;;;;;6.07;1.63;;;;;;;;;;6215046;23;20269;-91
2022/01/30 15:18:46;;;;;;;5.17;1.30;;;;;;;;;;6215456;23;20173;-91
2022/01/30 15:21:14;;;;;;;4.30;1.93;;;;;;;;;;6214889;23;20178;-91
2022/01/30 15:23:42;;;;;;;6.07;2.07;;;;;;;;;;6215120;23;20189;-92
2022/01/30 15:26:10;;;;;;;10.67;1.60;;;;;;;;;;6215540;23;20181;-92
2022/01/30 15:28:37;;;;;;;3.40;1.93;;;;;;;;;;6214670;23;20236;-92
2022/01/30 15:31:06;;;;;;;8.03;2.17;;;;;;;;;;6215251;23;20471;-92
2022/01/30 15:33:33;;;;;;;5.57;1.77;;;;;;;;;;6214692;23;20236;-92
2022/01/30 15:36:01;;;;;;;3.83;1.23;;;;;;;;;;6215170;23;20278;-91
2022/01/30 15:38:28;;;;;;;6.90;1.70;;;;;;;;;;6215027;23;20178;-92
2022/01/30 15:40:56;;;;;;;4.77;1.90;;;;;;;;;;6215406;23;20257;-91
2022/01/30 15:43:26;;;;;;;12.53;1.80;;;;;;;;;;6215553;23;20178;-91